createdAt,value
2018-08-23T06:53:01.093Z,50.50
2018-08-23T06:55:33.851Z,72.30
2018-08-23T06:58:03.668Z,71.90
2018-08-23T07:00:32.519Z,71.70
2018-08-23T07:03:00.902Z,71.30
2018-08-23T07:05:29.289Z,71.20
2018-08-23T07:07:57.690Z,70.80
2018-08-23T07:10:26.100Z,71.00
2018-08-23T07:12:56.479Z,70.40
2018-08-23T07:15:25.243Z,70.40
2018-08-23T07:17:53.585Z,70.50
2018-08-23T07:20:21.944Z,70.50
2018-08-23T07:22:50.319Z,70.50
2018-08-23T07:25:19.498Z,70.40
2018-08-23T07:27:48.014Z,70.20
2018-08-23T07:30:18.352Z,70.00
2018-08-23T07:32:48.014Z,69.90
2018-08-23T07:35:17.787Z,69.80
2018-08-23T07:37:49.831Z,69.80
2018-08-23T07:40:21.529Z,70.00
2018-08-23T07:42:51.301Z,69.60
2018-08-23T07:45:19.821Z,69.00
2018-08-23T07:47:52.560Z,68.40
2018-08-23T07:50:21.310Z,68.10
2018-08-23T07:52:54.153Z,67.90
2018-08-23T07:55:27.164Z,67.50
2018-08-23T07:57:55.630Z,67.30
2018-08-23T08:00:31.784Z,67.50
2018-08-23T08:03:00.190Z,67.00
2018-08-23T08:05:29.913Z,66.10
2018-08-23T08:07:58.238Z,65.80
2018-08-23T08:10:31.735Z,65.30
2018-08-23T08:13:00.268Z,64.70
2018-08-23T08:15:28.648Z,63.90
2018-08-23T08:18:06.314Z,63.70
2018-08-23T08:20:34.832Z,63.40
2018-08-23T08:23:03.274Z,62.50
2018-08-23T08:25:33.208Z,61.90
2018-08-23T08:28:01.629Z,61.40
2018-08-23T08:30:41.327Z,59.80
2018-08-23T08:33:11.446Z,58.80
2018-08-23T08:35:42.204Z,58.20
2018-08-23T08:38:10.841Z,58.40
2018-08-23T08:40:39.220Z,57.40
2018-08-23T08:43:07.546Z,56.80
2018-08-23T08:45:35.878Z,56.50
2018-08-23T08:48:17.878Z,55.70
2018-08-23T08:51:01.614Z,55.20
2018-08-23T08:53:31.006Z,53.70
2018-08-23T08:56:00.742Z,53.30
2018-08-23T08:58:29.242Z,53.00
2018-08-23T09:00:57.570Z,52.30
2018-08-23T09:03:30.443Z,51.80
2018-08-23T09:05:59.467Z,50.90
2018-08-23T09:08:28.044Z,50.30
2018-08-23T09:10:57.029Z,49.60
2018-08-23T09:13:30.626Z,50.10
2018-08-23T09:16:01.351Z,49.50
2018-08-23T09:18:29.765Z,47.00
2018-08-23T09:20:58.306Z,46.70
2018-08-23T09:23:26.836Z,46.40
2018-08-23T09:25:57.974Z,45.40
2018-08-23T09:28:27.668Z,45.00
2018-08-23T09:30:56.270Z,44.90
2018-08-23T09:33:26.076Z,44.90
2018-08-23T09:35:55.162Z,44.90
2018-08-23T09:38:23.545Z,44.30
2018-08-23T09:40:51.846Z,44.10
2018-08-23T09:43:20.712Z,43.70
2018-08-23T09:45:49.342Z,44.00
2018-08-23T09:48:17.675Z,43.60
2018-08-23T09:50:46.148Z,43.90
2018-08-23T09:53:19.934Z,43.90
2018-08-23T09:55:48.789Z,43.80
2018-08-23T09:58:25.195Z,43.80
2018-08-23T10:00:59.576Z,43.70
2018-08-23T10:03:34.285Z,43.80
2018-08-23T10:06:08.497Z,43.90
2018-08-23T10:08:42.461Z,43.50
2018-08-23T10:11:19.847Z,43.70
2018-08-23T10:13:53.585Z,43.50
2018-08-23T10:16:27.352Z,43.70
2018-08-23T10:19:05.863Z,43.40
2018-08-23T10:21:39.790Z,43.10
2018-08-23T10:24:17.239Z,43.10
2018-08-23T10:26:45.788Z,43.10
2018-08-23T10:29:14.112Z,42.60
2018-08-23T10:31:42.422Z,42.90
2018-08-23T10:34:10.725Z,42.40
2018-08-23T10:36:39.229Z,42.00
2018-08-23T10:39:09.213Z,42.10
2018-08-23T10:41:37.569Z,42.10
2018-08-23T10:44:06.102Z,41.20
2018-08-23T10:46:40.043Z,41.60
2018-08-23T10:49:08.507Z,41.80
2018-08-23T10:51:36.925Z,41.80
2018-08-23T10:54:05.306Z,41.80
2018-08-23T10:56:33.710Z,42.10
2018-08-23T10:59:02.175Z,41.70
2018-08-23T11:01:30.543Z,41.60
2018-08-23T11:04:04.202Z,41.90
2018-08-23T11:06:32.572Z,41.90
2018-08-23T11:09:06.294Z,42.00
2018-08-23T11:11:36.045Z,41.60
2018-08-23T11:14:09.877Z,41.50
2018-08-23T11:16:43.853Z,41.50
2018-08-23T11:19:17.629Z,41.30
2018-08-23T11:21:46.131Z,41.40
2018-08-23T11:24:15.120Z,41.40
2018-08-23T11:26:43.504Z,41.50
2018-08-23T11:29:12.637Z,41.60
2018-08-23T11:31:41.081Z,42.10
2018-08-23T11:34:09.458Z,41.40
2018-08-23T11:36:40.805Z,41.90
2018-08-23T11:39:09.493Z,41.30
2018-08-23T11:41:37.926Z,41.00
2018-08-23T11:44:06.413Z,41.20
2018-08-23T11:46:35.019Z,41.30
2018-08-23T11:49:04.650Z,41.40
2018-08-23T11:51:33.069Z,41.20
2018-08-23T11:54:01.617Z,41.00
2018-08-23T11:56:30.731Z,41.20
2018-08-23T11:58:59.118Z,41.20
2018-08-23T12:01:27.596Z,41.20
2018-08-23T12:03:55.999Z,41.10
2018-08-23T12:06:24.500Z,40.50
2018-08-23T12:08:52.943Z,40.10
2018-08-23T12:11:21.699Z,40.20
2018-08-23T12:13:50.917Z,40.30
2018-08-23T12:16:19.643Z,40.70
2018-08-23T12:18:48.109Z,39.70
2018-08-23T12:21:16.561Z,39.40
2018-08-23T12:23:45.016Z,39.20
2018-08-23T12:26:13.618Z,38.80
2018-08-23T12:28:47.443Z,38.00
2018-08-23T12:31:15.835Z,37.30
2018-08-23T12:33:45.564Z,36.50
2018-08-23T12:36:18.362Z,35.60
2018-08-23T12:38:52.279Z,34.50
2018-08-23T12:41:25.951Z,33.90
2018-08-23T12:43:55.745Z,33.50
2018-08-23T12:46:24.173Z,34.10
2018-08-23T12:48:58.164Z,33.90
2018-08-23T12:51:26.567Z,34.00
2018-08-23T12:53:54.935Z,33.90
2018-08-23T12:56:23.313Z,33.90
2018-08-23T12:58:51.748Z,33.80
2018-08-23T13:01:20.305Z,34.30
2018-08-23T13:03:48.749Z,34.30
2018-08-23T13:06:17.196Z,34.90
2018-08-23T13:08:45.555Z,33.60
2018-08-23T13:11:14.149Z,33.50
2018-08-23T13:13:42.659Z,33.40
2018-08-23T13:16:11.899Z,32.80
2018-08-23T13:18:40.323Z,33.30
2018-08-23T13:21:09.641Z,33.00
2018-08-23T13:23:42.251Z,33.10
2018-08-23T13:26:10.651Z,33.10
2018-08-23T13:28:38.962Z,31.80
2018-08-23T13:31:07.565Z,30.70
2018-08-23T13:33:36.087Z,30.10
2018-08-23T13:36:04.545Z,29.60
2018-08-23T13:38:32.974Z,28.60
2018-08-23T13:41:01.336Z,27.80
2018-08-23T13:43:29.818Z,27.00
2018-08-23T13:45:58.712Z,26.70
2018-08-23T13:48:27.169Z,26.70
2018-08-23T13:50:56.211Z,28.50
2018-08-23T13:53:24.620Z,29.70
2018-08-23T13:55:54.927Z,29.60
2018-08-23T13:58:23.355Z,29.40
2018-08-23T14:00:51.781Z,28.70
2018-08-23T14:03:20.236Z,28.00
2018-08-23T14:05:48.692Z,27.30
2018-08-23T14:08:17.291Z,26.90
2018-08-23T14:10:45.905Z,27.00
2018-08-23T14:13:14.374Z,26.80
2018-08-23T14:15:48.152Z,26.70
2018-08-23T14:18:16.487Z,26.70
2018-08-23T14:20:44.866Z,26.40
2018-08-23T14:23:13.377Z,26.50
2018-08-23T14:25:41.867Z,25.90
2018-08-23T14:28:10.358Z,25.90
2018-08-23T14:30:39.951Z,25.60
2018-08-23T14:33:08.996Z,25.70
2018-08-23T14:35:38.751Z,25.90
2018-08-23T14:38:07.189Z,25.40
2018-08-23T14:40:35.634Z,25.40
2018-08-23T14:43:04.084Z,25.30
2018-08-23T14:45:33.754Z,25.50
2018-08-23T14:48:07.470Z,26.10
2018-08-23T14:50:36.584Z,25.80
2018-08-23T14:53:05.972Z,25.80
2018-08-23T14:55:39.888Z,25.50
2018-08-23T14:58:09.063Z,25.80
2018-08-23T15:00:37.458Z,26.40
2018-08-23T15:03:06.076Z,27.50
2018-08-23T15:05:34.551Z,27.20
2018-08-23T15:08:02.933Z,26.60
2018-08-23T15:10:31.375Z,26.70
2018-08-23T15:13:00.494Z,25.80
2018-08-23T15:15:34.279Z,25.80
2018-08-23T15:18:02.566Z,26.30
2018-08-23T15:20:31.060Z,26.10
2018-08-23T15:22:59.433Z,25.20
2018-08-23T15:25:27.815Z,24.90
2018-08-23T15:27:56.215Z,24.40
2018-08-23T15:30:24.612Z,24.30
2018-08-23T15:32:53.080Z,24.70
2018-08-23T15:35:21.409Z,25.00
2018-08-23T15:37:49.770Z,24.60
2018-08-23T15:40:18.163Z,25.00
2018-08-23T15:42:46.648Z,25.20
2018-08-23T15:45:15.019Z,25.10
2018-08-23T15:47:43.454Z,25.20
2018-08-23T15:50:11.997Z,25.00
2018-08-23T15:52:40.376Z,24.80
2018-08-23T15:55:08.908Z,24.90
2018-08-23T15:57:37.558Z,25.10
2018-08-23T16:00:06.570Z,24.70
2018-08-23T16:02:34.989Z,24.70
2018-08-23T16:05:03.369Z,25.40
2018-08-23T16:07:31.787Z,25.90
2018-08-23T16:10:00.173Z,27.00
2018-08-23T16:12:28.631Z,27.90
2018-08-23T16:14:57.946Z,28.80
2018-08-23T16:17:38.597Z,29.80
2018-08-23T16:20:12.324Z,30.30
2018-08-23T16:22:40.726Z,31.00
2018-08-23T16:25:09.343Z,31.40
2018-08-23T16:27:37.792Z,31.90
2018-08-23T16:30:07.073Z,32.00
2018-08-23T16:32:36.265Z,32.30
2018-08-23T16:35:04.652Z,32.40
2018-08-23T16:37:33.741Z,32.70
2018-08-23T16:40:02.424Z,32.80
2018-08-23T16:42:31.559Z,32.80
2018-08-23T16:45:00.232Z,32.90
2018-08-23T16:47:29.041Z,32.80
2018-08-23T16:50:00.128Z,33.10
2018-08-23T16:52:28.521Z,33.20
2018-08-23T16:54:56.959Z,33.20
2018-08-23T16:57:25.463Z,33.30
2018-08-23T16:59:53.762Z,33.30
2018-08-23T17:02:22.197Z,33.40
2018-08-23T17:04:50.626Z,33.60
2018-08-23T17:07:19.101Z,33.50
2018-08-23T17:09:47.440Z,33.80
2018-08-23T17:12:15.787Z,33.80
2018-08-23T17:14:44.182Z,33.90
2018-08-23T17:17:17.883Z,34.00
2018-08-23T17:19:47.170Z,34.20
2018-08-23T17:22:15.535Z,34.40
2018-08-23T17:24:44.118Z,34.70
2018-08-23T17:27:12.383Z,34.80
2018-08-23T17:29:41.661Z,34.90
2018-08-23T17:32:10.016Z,35.00
2018-08-23T17:34:38.416Z,35.40
2018-08-23T17:37:06.817Z,35.40
2018-08-23T17:39:35.155Z,35.60
2018-08-23T17:42:03.689Z,35.70
2018-08-23T17:44:32.082Z,35.80
2018-08-23T17:47:01.882Z,36.00
2018-08-23T17:49:36.703Z,36.30
2018-08-23T17:52:05.418Z,36.60
2018-08-23T17:54:34.514Z,36.80
2018-08-23T17:57:02.801Z,37.00
2018-08-23T17:59:31.275Z,37.30
2018-08-23T18:01:59.558Z,37.60
2018-08-23T18:04:27.942Z,38.00
2018-08-23T18:06:56.764Z,38.30
2018-08-23T18:09:25.094Z,38.50
2018-08-23T18:11:53.422Z,39.00
2018-08-23T18:14:21.800Z,42.20
2018-08-23T18:16:55.516Z,44.60
2018-08-23T18:19:23.897Z,47.20
2018-08-23T18:21:52.215Z,47.40
2018-08-23T18:24:20.569Z,47.10
2018-08-23T18:26:48.913Z,46.20
2018-08-23T18:29:18.215Z,46.50
2018-08-23T18:31:46.554Z,46.00
2018-08-23T18:34:14.903Z,45.90
2018-08-23T18:36:43.251Z,46.10
2018-08-23T18:39:11.879Z,46.30
2018-08-23T18:41:40.237Z,45.40
2018-08-23T18:44:08.650Z,44.50
2018-08-23T18:46:37.211Z,44.30
2018-08-23T18:49:05.629Z,44.10
2018-08-23T18:51:33.999Z,44.10
2018-08-23T18:54:02.481Z,44.10
2018-08-23T18:56:31.247Z,44.50
2018-08-23T18:58:59.838Z,45.00
2018-08-23T19:01:28.393Z,45.50
2018-08-23T19:03:56.869Z,46.60
2018-08-23T19:06:29.453Z,48.20
2018-08-23T19:08:57.956Z,50.00
2018-08-23T19:11:26.780Z,51.40
2018-08-23T19:13:55.127Z,53.70
2018-08-23T19:16:29.167Z,54.40
2018-08-23T19:18:57.733Z,55.80
2018-08-23T19:21:26.947Z,57.30
2018-08-23T19:23:55.368Z,58.10
2018-08-23T19:26:23.837Z,59.10
2018-08-23T19:28:52.340Z,59.30
2018-08-23T19:31:20.762Z,59.80
2018-08-23T19:33:49.287Z,60.40
2018-08-23T19:36:17.685Z,61.40
2018-08-23T19:38:46.006Z,61.40
2018-08-23T19:41:15.722Z,61.90
2018-08-23T19:43:44.145Z,61.80
2018-08-23T19:46:18.114Z,62.20
2018-08-23T19:48:48.130Z,61.80
2018-08-23T19:51:16.453Z,62.20
2018-08-23T19:53:45.466Z,62.60
2018-08-23T19:56:13.748Z,62.60
2018-08-23T19:58:42.106Z,63.10
2018-08-23T20:01:10.496Z,63.30
2018-08-23T20:03:38.868Z,63.70
2018-08-23T20:06:07.186Z,64.40
2018-08-23T20:08:35.516Z,64.60
2018-08-23T20:11:03.875Z,65.00
2018-08-23T20:13:32.243Z,65.20
2018-08-23T20:16:00.601Z,66.30
2018-08-23T20:18:28.990Z,65.80
2018-08-23T20:20:57.635Z,66.10
2018-08-23T20:23:26.058Z,66.30
2018-08-23T20:25:54.452Z,66.60
2018-08-23T20:28:22.812Z,67.00
2018-08-23T20:30:51.228Z,67.20
2018-08-23T20:33:19.699Z,67.30
2018-08-23T20:35:48.209Z,67.50
2018-08-23T20:38:16.617Z,67.30
2018-08-23T20:40:45.045Z,67.90
2018-08-23T20:43:14.761Z,68.20
2018-08-23T20:45:43.206Z,68.40
2018-08-23T20:48:11.575Z,68.50
2018-08-23T20:50:39.928Z,68.80
2018-08-23T20:53:08.544Z,68.80
2018-08-23T20:55:36.955Z,68.90
2018-08-23T20:58:05.461Z,69.40
2018-08-23T21:00:33.901Z,69.50
2018-08-23T21:03:02.279Z,70.00
2018-08-23T21:05:30.757Z,70.40
2018-08-23T21:07:59.292Z,70.80
2018-08-23T21:10:27.877Z,71.00
2018-08-23T21:12:57.061Z,72.20
2018-08-23T21:15:25.488Z,75.00
2018-08-23T21:17:53.884Z,76.60
2018-08-23T21:20:22.300Z,78.10
2018-08-23T21:22:50.948Z,80.50
2018-08-23T21:25:19.308Z,81.20
2018-08-23T21:27:47.834Z,82.60
2018-08-23T21:30:16.226Z,83.50
2018-08-23T21:32:44.833Z,84.20
2018-08-23T21:35:13.175Z,84.30
2018-08-23T21:37:42.716Z,84.50
2018-08-23T21:40:11.069Z,84.70
2018-08-23T21:42:39.427Z,83.40
2018-08-23T21:45:07.947Z,83.10
2018-08-23T21:47:36.401Z,83.80
2018-08-23T21:50:05.010Z,83.70
2018-08-23T21:52:33.417Z,83.40
2018-08-23T21:55:01.742Z,83.70
2018-08-23T21:57:30.261Z,83.80
2018-08-23T21:59:58.736Z,84.20
2018-08-23T22:02:27.182Z,84.70
2018-08-23T22:04:56.929Z,84.90
2018-08-23T22:07:25.336Z,85.30
2018-08-23T22:09:54.782Z,85.40
2018-08-23T22:12:24.358Z,85.50
2018-08-23T22:14:53.891Z,85.70
2018-08-23T22:17:22.855Z,86.60
2018-08-23T22:19:52.148Z,86.30
2018-08-23T22:22:20.745Z,86.60
2018-08-23T22:24:49.171Z,87.00
2018-08-23T22:27:18.168Z,87.20
2018-08-23T22:29:46.520Z,87.40
2018-08-23T22:32:15.753Z,87.70
2018-08-23T22:34:44.261Z,88.00
2018-08-23T22:37:13.584Z,88.10
2018-08-23T22:39:42.259Z,88.40
2018-08-23T22:42:10.759Z,88.80
2018-08-23T22:44:39.185Z,88.80
2018-08-23T22:47:07.599Z,89.00
2018-08-23T22:49:36.073Z,88.60
2018-08-23T22:52:04.439Z,88.50
2018-08-23T22:54:32.840Z,88.10
2018-08-23T22:57:01.397Z,88.80
2018-08-23T22:59:29.846Z,88.30
2018-08-23T23:01:58.287Z,89.10
2018-08-23T23:04:26.919Z,88.60
2018-08-23T23:06:56.201Z,89.50
2018-08-23T23:09:24.850Z,89.10
2018-08-23T23:11:53.326Z,89.40
2018-08-23T23:14:21.991Z,90.00
2018-08-23T23:16:57.002Z,90.20
2018-08-23T23:19:25.983Z,90.60
2018-08-23T23:21:54.384Z,90.80
2018-08-23T23:24:28.230Z,91.10
2018-08-23T23:26:57.191Z,91.20
2018-08-23T23:29:25.977Z,91.40
2018-08-23T23:31:54.388Z,91.70
2018-08-23T23:34:22.897Z,91.60
2018-08-23T23:36:51.355Z,91.90
2018-08-23T23:39:20.006Z,92.00
2018-08-23T23:41:49.158Z,92.30
2018-08-23T23:44:17.749Z,92.50
2018-08-23T23:46:46.089Z,92.60
2018-08-23T23:49:14.756Z,92.80
2018-08-23T23:51:43.258Z,93.00
2018-08-23T23:54:11.710Z,93.20
2018-08-23T23:56:40.144Z,93.40
2018-08-23T23:59:08.474Z,93.50
